Time;durP1;ratioP1;P1;durP2;ratioP2;P2;SDS_P1;SDS_P2;PMS_P1;PMS_P2;Temp;Humidity;BMP_temperature;BMP_pressure;BME280_temperature;BME280_humidity;BME280_pressure;Samples;Min_cycle;Max_cycle;Signal;HPM_P1;HPM_P2
2023/12/20 00:00:37;;;;;;;78.78;37.20;;;;;;;;;;6116459;23;20022;-71
2023/12/20 00:03:04;;;;;;;73.57;34.25;;;;;;;;;;6117868;23;20001;-71
2023/12/20 00:05:32;;;;;;;74.15;37.80;;;;;;;;;;6118423;23;20126;-72
2023/12/20 00:07:57;;;;;;;69.00;32.45;;;;;;;;;;6117698;23;20047;-71
2023/12/20 00:10:23;;;;;;;61.72;32.45;;;;;;;;;;6118105;23;20006;-72
2023/12/20 00:12:49;;;;;;;55.58;29.85;;;;;;;;;;6090573;23;20076;-72
2023/12/20 00:15:14;;;;;;;53.35;28.67;;;;;;;;;;6116030;23;20022;-72
2023/12/20 00:17:40;;;;;;;48.25;27.63;;;;;;;;;;6092043;23;20002;-72
2023/12/20 00:20:06;;;;;;;55.35;28.75;;;;;;;;;;6118157;23;20470;-72
2023/12/20 00:22:32;;;;;;;48.60;26.00;;;;;;;;;;6118273;23;20057;-73
2023/12/20 00:24:58;;;;;;;54.45;28.60;;;;;;;;;;6118024;23;20002;-72
2023/12/20 00:27:23;;;;;;;54.05;28.35;;;;;;;;;;6117997;23;20014;-71
2023/12/20 00:29:50;;;;;;;58.05;27.67;;;;;;;;;;6117996;23;20022;-72
2023/12/20 00:32:16;;;;;;;71.82;29.25;;;;;;;;;;6118402;23;20009;-72
2023/12/20 00:34:43;;;;;;;59.10;29.83;;;;;;;;;;6118082;23;20018;-73
2023/12/20 00:37:08;;;;;;;53.15;27.27;;;;;;;;;;6118107;23;20309;-72
2023/12/20 00:39:34;;;;;;;55.67;28.45;;;;;;;;;;6118108;23;20330;-72
2023/12/20 00:42:00;;;;;;;53.28;28.73;;;;;;;;;;6117995;23;20025;-73
2023/12/20 00:44:27;;;;;;;58.05;28.38;;;;;;;;;;6117589;23;20014;-71
2023/12/20 00:46:52;;;;;;;50.45;30.45;;;;;;;;;;6118647;23;20556;-72
2023/12/20 00:49:18;;;;;;;66.22;35.60;;;;;;;;;;6117859;23;20096;-71
2023/12/20 00:51:44;;;;;;;63.53;34.53;;;;;;;;;;6119433;23;20010;-72
2023/12/20 00:54:09;;;;;;;71.05;40.05;;;;;;;;;;6118005;23;20033;-71
2023/12/20 00:56:35;;;;;;;70.90;36.90;;;;;;;;;;6121127;23;20465;-72
2023/12/20 00:59:01;;;;;;;67.65;37.53;;;;;;;;;;6118589;23;20088;-73
2023/12/20 01:01:26;;;;;;;77.60;40.53;;;;;;;;;;6118592;23;20010;-72
2023/12/20 01:03:52;;;;;;;86.97;43.15;;;;;;;;;;6119067;23;20013;-72
2023/12/20 01:06:18;;;;;;;84.50;41.97;;;;;;;;;;6118650;23;20017;-72
2023/12/20 01:08:44;;;;;;;84.82;45.00;;;;;;;;;;6118554;23;20009;-72
2023/12/20 01:11:09;;;;;;;83.53;44.65;;;;;;;;;;6116395;23;20048;-72
2023/12/20 01:13:35;;;;;;;79.20;42.10;;;;;;;;;;6118542;23;20381;-70
2023/12/20 01:16:01;;;;;;;79.45;43.13;;;;;;;;;;6118169;23;20055;-72
2023/12/20 01:18:27;;;;;;;88.28;44.67;;;;;;;;;;6116921;23;20024;-73
2023/12/20 01:20:53;;;;;;;80.93;43.55;;;;;;;;;;6118290;23;20042;-71
2023/12/20 01:23:19;;;;;;;96.88;50.92;;;;;;;;;;6118179;23;20017;-72
2023/12/20 01:25:44;;;;;;;84.55;42.70;;;;;;;;;;6118548;23;20041;-72
2023/12/20 01:28:10;;;;;;;68.55;34.15;;;;;;;;;;6117999;23;20018;-72
2023/12/20 01:30:36;;;;;;;56.30;29.73;;;;;;;;;;6118731;23;20014;-73
2023/12/20 01:33:02;;;;;;;56.17;29.10;;;;;;;;;;6118606;23;20418;-71
2023/12/20 01:35:27;;;;;;;52.53;29.70;;;;;;;;;;6120826;23;20438;-72
2023/12/20 01:37:57;;;;;;;49.20;29.90;;;;;;;;;;6120443;23;20105;-72
2023/12/20 01:40:23;;;;;;;56.55;30.27;;;;;;;;;;6118378;23;20025;-72
2023/12/20 01:43:02;;;;;;;50.65;29.15;;;;;;;;;;6118383;23;20065;-72
2023/12/20 01:45:28;;;;;;;50.47;28.10;;;;;;;;;;6118016;23;20029;-71
2023/12/20 01:47:59;;;;;;;51.83;29.80;;;;;;;;;;6092584;23;20432;-72
2023/12/20 01:50:25;;;;;;;46.40;27.58;;;;;;;;;;6118717;23;20021;-72
2023/12/20 01:52:52;;;;;;;47.55;27.88;;;;;;;;;;6117743;23;20021;-72
2023/12/20 01:55:20;;;;;;;51.70;28.67;;;;;;;;;;6120841;23;20009;-72
2023/12/20 01:57:47;;;;;;;49.35;28.23;;;;;;;;;;6123941;23;20035;-72
2023/12/20 02:00:14;;;;;;;39.58;23.98;;;;;;;;;;6120554;23;20038;-72
2023/12/20 02:02:40;;;;;;;44.35;23.45;;;;;;;;;;6098143;23;95128;-72
2023/12/20 02:05:07;;;;;;;42.55;23.35;;;;;;;;;;6124916;23;20014;-73
2023/12/20 02:07:35;;;;;;;39.33;23.00;;;;;;;;;;6124798;23;20014;-71
2023/12/20 02:10:02;;;;;;;42.70;23.95;;;;;;;;;;6098928;23;20357;-71
2023/12/20 02:12:27;;;;;;;47.65;26.10;;;;;;;;;;6124919;23;20079;-71
2023/12/20 02:14:54;;;;;;;47.50;26.75;;;;;;;;;;6124975;23;20014;-72
2023/12/20 02:17:20;;;;;;;52.40;26.60;;;;;;;;;;6125563;23;20017;-72
2023/12/20 02:19:46;;;;;;;53.53;27.33;;;;;;;;;;6125143;23;20321;-72
2023/12/20 02:22:12;;;;;;;46.72;23.83;;;;;;;;;;6124986;23;20048;-72
2023/12/20 02:24:38;;;;;;;49.20;25.73;;;;;;;;;;6124899;23;20199;-72
2023/12/20 02:27:06;;;;;;;39.45;24.30;;;;;;;;;;6125256;23;20013;-71
2023/12/20 02:29:33;;;;;;;38.63;21.88;;;;;;;;;;6124584;23;20017;-72
2023/12/20 02:31:58;;;;;;;32.28;19.73;;;;;;;;;;6098742;23;20341;-72
2023/12/20 02:34:24;;;;;;;29.92;18.65;;;;;;;;;;6124475;23;20014;-72
2023/12/20 02:36:50;;;;;;;32.03;20.02;;;;;;;;;;6098564;23;20014;-72
2023/12/20 02:39:16;;;;;;;34.15;20.52;;;;;;;;;;6124947;23;20005;-72
2023/12/20 02:41:42;;;;;;;30.33;18.83;;;;;;;;;;6125186;23;20387;-72
2023/12/20 02:44:08;;;;;;;37.50;19.23;;;;;;;;;;6125037;23;20368;-71
2023/12/20 02:46:33;;;;;;;35.85;19.27;;;;;;;;;;6124986;23;20012;-72
2023/12/20 02:48:59;;;;;;;29.05;18.00;;;;;;;;;;6124798;23;20233;-72
2023/12/20 02:51:25;;;;;;;30.10;17.33;;;;;;;;;;6124505;23;20018;-72
2023/12/20 02:53:50;;;;;;;30.90;17.85;;;;;;;;;;6124667;23;20002;-72
2023/12/20 02:56:17;;;;;;;31.75;18.25;;;;;;;;;;6124571;23;20118;-71
2023/12/20 02:58:44;;;;;;;29.90;17.85;;;;;;;;;;6124892;23;20340;-72
2023/12/20 03:01:10;;;;;;;28.10;17.48;;;;;;;;;;6127405;23;20016;-72
2023/12/20 03:03:36;;;;;;;30.23;17.58;;;;;;;;;;6126773;23;20076;-71
2023/12/20 03:06:01;;;;;;;28.92;17.63;;;;;;;;;;6127381;23;20402;-71
2023/12/20 03:08:27;;;;;;;29.42;18.27;;;;;;;;;;6126367;23;20046;-72
2023/12/20 03:10:53;;;;;;;32.50;19.23;;;;;;;;;;6126860;23;20085;-71
2023/12/20 03:13:19;;;;;;;28.45;18.20;;;;;;;;;;6126304;23;20344;-72
2023/12/20 03:15:45;;;;;;;31.90;19.00;;;;;;;;;;6126100;23;20116;-73
2023/12/20 03:18:11;;;;;;;29.65;18.65;;;;;;;;;;6128216;23;20006;-73
2023/12/20 03:20:37;;;;;;;35.90;20.33;;;;;;;;;;6128073;23;20093;-72
2023/12/20 03:23:03;;;;;;;36.78;20.35;;;;;;;;;;6126441;23;20010;-72
2023/12/20 03:25:29;;;;;;;32.22;19.45;;;;;;;;;;6126259;23;20005;-71
2023/12/20 03:27:55;;;;;;;34.25;19.65;;;;;;;;;;6119397;23;20017;-71
2023/12/20 03:30:20;;;;;;;38.97;22.40;;;;;;;;;;6124552;23;20025;-72
2023/12/20 03:32:47;;;;;;;35.53;21.75;;;;;;;;;;6126108;23;20002;-71
2023/12/20 03:35:13;;;;;;;42.38;23.27;;;;;;;;;;6125897;23;20397;-71
2023/12/20 03:37:38;;;;;;;45.33;22.60;;;;;;;;;;6149804;23;20326;-72
2023/12/20 03:40:05;;;;;;;48.42;22.75;;;;;;;;;;6126108;23;20081;-71
2023/12/20 03:42:30;;;;;;;52.15;25.58;;;;;;;;;;6126116;23;20018;-73
2023/12/20 03:44:56;;;;;;;51.55;23.85;;;;;;;;;;6126196;23;20014;-72
2023/12/20 03:47:22;;;;;;;47.33;22.23;;;;;;;;;;6126200;23;20326;-72
2023/12/20 03:49:49;;;;;;;36.50;19.67;;;;;;;;;;6125428;23;20010;-72
2023/12/20 03:52:14;;;;;;;31.67;20.00;;;;;;;;;;6125386;23;20492;-72
2023/12/20 03:54:42;;;;;;;36.83;20.17;;;;;;;;;;6123855;23;20026;-73
2023/12/20 03:57:08;;;;;;;31.60;18.60;;;;;;;;;;6126120;23;20024;-72
2023/12/20 03:59:37;;;;;;;38.45;19.23;;;;;;;;;;6127046;23;20021;-73
2023/12/20 04:02:04;;;;;;;35.60;20.17;;;;;;;;;;6135868;23;20084;-72
2023/12/20 04:04:30;;;;;;;39.75;21.88;;;;;;;;;;6125898;23;20002;-71
2023/12/20 04:06:55;;;;;;;39.65;21.42;;;;;;;;;;6126250;23;20321;-72
2023/12/20 04:09:21;;;;;;;40.45;20.92;;;;;;;;;;6126159;23;20013;-72
2023/12/20 04:11:47;;;;;;;42.08;23.23;;;;;;;;;;6125568;23;20386;-73
2023/12/20 04:14:12;;;;;;;53.90;24.42;;;;;;;;;;6125495;23;20009;-72
2023/12/20 04:16:39;;;;;;;47.42;24.10;;;;;;;;;;6125851;23;20014;-71
2023/12/20 04:19:05;;;;;;;46.15;23.55;;;;;;;;;;6125644;23;20005;-71
2023/12/20 04:21:30;;;;;;;49.72;23.25;;;;;;;;;;6125803;23;20087;-73
2023/12/20 04:23:57;;;;;;;61.70;24.60;;;;;;;;;;6125735;23;20020;-72
2023/12/20 04:26:23;;;;;;;40.42;23.08;;;;;;;;;;6125335;23;20041;-73
2023/12/20 04:28:48;;;;;;;40.22;24.23;;;;;;;;;;6075564;23;20021;-71
2023/12/20 04:31:14;;;;;;;42.58;24.73;;;;;;;;;;6125534;23;20016;-71
2023/12/20 04:33:40;;;;;;;48.63;24.50;;;;;;;;;;6124741;23;20029;-72
2023/12/20 04:36:05;;;;;;;42.25;21.92;;;;;;;;;;6125017;23;20065;-72
2023/12/20 04:38:31;;;;;;;42.20;23.13;;;;;;;;;;6125793;23;20029;-71
2023/12/20 04:40:57;;;;;;;36.70;22.45;;;;;;;;;;6125019;23;20341;-71
2023/12/20 04:43:22;;;;;;;38.88;22.63;;;;;;;;;;6099271;23;20428;-71
2023/12/20 04:45:48;;;;;;;48.78;22.80;;;;;;;;;;6125231;23;20433;-71
2023/12/20 04:48:14;;;;;;;39.35;21.52;;;;;;;;;;6125041;23;20073;-72
2023/12/20 04:50:39;;;;;;;36.70;22.00;;;;;;;;;;6098639;23;20018;-72
2023/12/20 04:53:05;;;;;;;45.95;21.85;;;;;;;;;;6124446;23;20014;-72
2023/12/20 04:55:32;;;;;;;48.88;22.05;;;;;;;;;;6123233;23;20421;-72
2023/12/20 04:57:57;;;;;;;34.83;19.58;;;;;;;;;;6098754;23;20041;-71
2023/12/20 05:00:24;;;;;;;36.17;20.77;;;;;;;;;;6125200;23;20021;-73
2023/12/20 05:02:49;;;;;;;35.22;20.75;;;;;;;;;;6124876;23;20385;-72
2023/12/20 05:05:17;;;;;;;40.30;20.73;;;;;;;;;;6099587;23;20438;-74
2023/12/20 05:07:43;;;;;;;40.05;19.73;;;;;;;;;;6125586;23;20014;-71
2023/12/20 05:10:09;;;;;;;58.85;22.92;;;;;;;;;;6125077;23;20324;-72
2023/12/20 05:12:35;;;;;;;46.90;23.42;;;;;;;;;;6124444;23;20018;-71
2023/12/20 05:15:01;;;;;;;62.03;23.35;;;;;;;;;;6124676;23;20073;-72
2023/12/20 05:17:26;;;;;;;51.15;23.30;;;;;;;;;;6124690;23;20009;-71
2023/12/20 05:19:52;;;;;;;47.00;21.17;;;;;;;;;;6099024;23;20048;-72
2023/12/20 05:22:19;;;;;;;34.15;18.05;;;;;;;;;;6124306;23;20006;-71
2023/12/20 05:24:45;;;;;;;52.40;20.80;;;;;;;;;;6124270;23;20005;-71
2023/12/20 05:27:11;;;;;;;41.13;20.40;;;;;;;;;;6124497;23;20013;-72
2023/12/20 05:29:37;;;;;;;41.10;19.50;;;;;;;;;;6123857;23;20033;-72
2023/12/20 05:32:06;;;;;;;44.58;20.85;;;;;;;;;;6123933;23;20407;-72
2023/12/20 05:34:32;;;;;;;41.40;19.67;;;;;;;;;;6124107;23;20010;-74
2023/12/20 05:37:01;;;;;;;36.95;19.08;;;;;;;;;;6123975;23;20022;-73
2023/12/20 05:39:27;;;;;;;36.13;19.67;;;;;;;;;;6125163;23;19997;-73
2023/12/20 05:41:59;;;;;;;57.63;23.23;;;;;;;;;;6124150;23;20013;-75
2023/12/20 05:44:25;;;;;;;45.35;20.63;;;;;;;;;;6124390;23;20014;-74
2023/12/20 05:46:51;;;;;;;43.35;20.70;;;;;;;;;;6124949;23;20009;-73
2023/12/20 05:49:16;;;;;;;33.65;20.23;;;;;;;;;;6124281;23;20020;-73
2023/12/20 05:51:42;;;;;;;46.50;22.05;;;;;;;;;;6124169;23;20060;-75
2023/12/20 05:54:09;;;;;;;59.22;20.35;;;;;;;;;;6124734;23;20109;-74
2023/12/20 05:56:35;;;;;;;50.53;20.65;;;;;;;;;;6123363;23;20029;-73
2023/12/20 05:59:03;;;;;;;38.92;21.13;;;;;;;;;;6124038;23;20017;-73
2023/12/20 06:01:28;;;;;;;38.17;20.85;;;;;;;;;;6123946;23;20076;-73
2023/12/20 06:03:54;;;;;;;48.45;22.35;;;;;;;;;;6121854;23;20021;-75
2023/12/20 06:06:19;;;;;;;55.22;23.75;;;;;;;;;;6122728;23;20018;-73
2023/12/20 06:08:45;;;;;;;59.55;24.75;;;;;;;;;;6123104;23;20002;-75
2023/12/20 06:11:11;;;;;;;52.40;25.08;;;;;;;;;;6121809;23;20033;-75
2023/12/20 06:13:37;;;;;;;54.58;24.60;;;;;;;;;;6123932;23;20010;-75
2023/12/20 06:16:06;;;;;;;55.97;22.27;;;;;;;;;;6124197;23;20145;-75
2023/12/20 06:18:32;;;;;;;44.88;21.75;;;;;;;;;;6124967;23;20010;-75
2023/12/20 06:20:57;;;;;;;51.90;23.52;;;;;;;;;;6124458;23;20065;-74
2023/12/20 06:23:23;;;;;;;54.78;24.10;;;;;;;;;;6123459;23;20077;-74
2023/12/20 06:25:50;;;;;;;62.28;24.08;;;;;;;;;;6123915;23;20362;-75
2023/12/20 06:28:16;;;;;;;67.18;25.88;;;;;;;;;;6123645;23;20089;-74
2023/12/20 06:30:43;;;;;;;56.85;23.38;;;;;;;;;;6123560;23;20429;-75
2023/12/20 06:33:09;;;;;;;47.00;21.48;;;;;;;;;;6123353;23;20014;-74
2023/12/20 06:35:36;;;;;;;43.33;23.23;;;;;;;;;;6124743;23;20429;-74
2023/12/20 06:38:01;;;;;;;44.80;23.10;;;;;;;;;;6124748;23;20009;-73
2023/12/20 06:40:27;;;;;;;50.00;23.92;;;;;;;;;;6125541;23;20010;-74
2023/12/20 06:42:54;;;;;;;48.10;22.15;;;;;;;;;;6125025;23;20018;-75
2023/12/20 06:45:20;;;;;;;48.90;22.42;;;;;;;;;;6126435;23;20065;-73
2023/12/20 06:47:46;;;;;;;43.83;21.88;;;;;;;;;;6123914;23;20018;-74
2023/12/20 06:50:11;;;;;;;47.80;23.00;;;;;;;;;;6125693;23;20385;-75
2023/12/20 06:52:39;;;;;;;41.10;20.88;;;;;;;;;;6125837;23;20001;-75
2023/12/20 06:55:06;;;;;;;47.17;20.40;;;;;;;;;;6125843;23;20014;-74
2023/12/20 06:57:32;;;;;;;39.78;20.13;;;;;;;;;;6125944;23;20014;-74
2023/12/20 06:59:57;;;;;;;34.08;19.67;;;;;;;;;;6126038;23;20069;-75
2023/12/20 07:02:23;;;;;;;37.80;20.00;;;;;;;;;;6126635;23;20081;-74
2023/12/20 07:04:49;;;;;;;34.80;19.92;;;;;;;;;;6127246;23;20436;-73
2023/12/20 07:07:14;;;;;;;44.35;21.17;;;;;;;;;;6126420;23;20443;-75
2023/12/20 07:09:42;;;;;;;49.67;22.48;;;;;;;;;;6126059;23;20072;-74
2023/12/20 07:12:09;;;;;;;48.28;22.60;;;;;;;;;;6103763;23;20087;-73
2023/12/20 07:14:36;;;;;;;43.22;24.77;;;;;;;;;;6141914;23;20057;-73
2023/12/20 07:17:02;;;;;;;46.75;23.48;;;;;;;;;;6133940;23;20021;-73
2023/12/20 07:19:28;;;;;;;40.20;24.05;;;;;;;;;;6126028;23;20006;-74
2023/12/20 07:21:55;;;;;;;38.03;22.80;;;;;;;;;;6125665;23;20253;-73
2023/12/20 07:24:21;;;;;;;45.05;25.52;;;;;;;;;;6126337;23;20010;-73
2023/12/20 07:26:46;;;;;;;40.15;23.60;;;;;;;;;;6100433;23;20476;-73
2023/12/20 07:29:12;;;;;;;56.42;27.23;;;;;;;;;;6125880;23;20085;-75
2023/12/20 07:31:38;;;;;;;45.65;27.77;;;;;;;;;;6124778;23;20022;-74
2023/12/20 07:34:05;;;;;;;42.78;26.30;;;;;;;;;;6098946;23;20096;-73
2023/12/20 07:36:31;;;;;;;49.85;25.98;;;;;;;;;;6125032;23;20002;-72
2023/12/20 07:38:56;;;;;;;42.65;25.63;;;;;;;;;;6099134;23;20021;-73
2023/12/20 07:41:23;;;;;;;53.42;27.20;;;;;;;;;;6126030;23;20017;-72
2023/12/20 07:43:51;;;;;;;42.38;27.15;;;;;;;;;;6099821;23;20009;-73
2023/12/20 07:46:16;;;;;;;51.65;28.88;;;;;;;;;;6125225;23;20058;-72
2023/12/20 07:48:42;;;;;;;47.72;27.73;;;;;;;;;;6098425;23;20010;-72
2023/12/20 07:51:09;;;;;;;46.20;28.02;;;;;;;;;;6124688;23;20034;-73
2023/12/20 07:53:35;;;;;;;65.78;33.10;;;;;;;;;;6124441;23;20010;-74
2023/12/20 07:56:02;;;;;;;48.13;30.00;;;;;;;;;;6125365;23;20294;-73
2023/12/20 07:58:29;;;;;;;55.42;32.97;;;;;;;;;;6124920;23;20001;-72
2023/12/20 08:00:55;;;;;;;63.50;34.17;;;;;;;;;;6124953;23;20073;-72
2023/12/20 08:03:21;;;;;;;66.57;34.80;;;;;;;;;;6124724;23;20018;-73
2023/12/20 08:05:46;;;;;;;57.13;31.25;;;;;;;;;;6124803;23;20006;-72
2023/12/20 08:08:12;;;;;;;46.85;29.95;;;;;;;;;;6123014;23;20090;-73
2023/12/20 08:10:38;;;;;;;59.53;30.70;;;;;;;;;;6125513;23;20017;-74
2023/12/20 08:13:04;;;;;;;53.13;27.55;;;;;;;;;;6124698;23;20006;-73
2023/12/20 08:15:30;;;;;;;46.00;28.33;;;;;;;;;;6124767;23;20014;-73
2023/12/20 08:17:57;;;;;;;52.13;30.05;;;;;;;;;;6123386;23;20420;-73
2023/12/20 08:20:23;;;;;;;52.60;30.60;;;;;;;;;;6123485;23;20017;-73
2023/12/20 08:22:49;;;;;;;45.65;28.52;;;;;;;;;;6124840;23;20449;-73
2023/12/20 08:25:16;;;;;;;41.35;26.48;;;;;;;;;;6074736;23;20037;-73
2023/12/20 08:27:41;;;;;;;46.90;27.52;;;;;;;;;;6125072;23;20441;-72
2023/12/20 08:30:10;;;;;;;50.92;26.15;;;;;;;;;;6125836;23;20006;-72
2023/12/20 08:32:36;;;;;;;44.88;27.67;;;;;;;;;;6125047;23;20010;-74
2023/12/20 08:35:02;;;;;;;50.70;27.30;;;;;;;;;;6124701;23;20009;-74
2023/12/20 08:37:29;;;;;;;53.65;29.23;;;;;;;;;;6125018;23;20455;-74
2023/12/20 08:39:56;;;;;;;46.88;28.00;;;;;;;;;;6125222;23;20057;-74
2023/12/20 08:42:21;;;;;;;47.55;28.27;;;;;;;;;;6101129;23;20002;-74
2023/12/20 08:44:47;;;;;;;53.80;29.08;;;;;;;;;;6098971;23;20127;-73
2023/12/20 08:47:15;;;;;;;54.42;29.48;;;;;;;;;;6124945;23;20040;-74
2023/12/20 08:49:41;;;;;;;53.42;29.60;;;;;;;;;;6124308;23;20010;-75
2023/12/20 08:52:07;;;;;;;45.17;29.83;;;;;;;;;;6124529;23;20093;-74
2023/12/20 08:54:32;;;;;;;66.82;30.73;;;;;;;;;;6125230;23;20010;-73
2023/12/20 08:57:00;;;;;;;54.42;30.17;;;;;;;;;;6098726;23;20426;-73
2023/12/20 08:59:25;;;;;;;45.28;28.13;;;;;;;;;;6124627;23;20085;-73
2023/12/20 09:01:54;;;;;;;49.28;28.00;;;;;;;;;;6099334;23;20292;-74
2023/12/20 09:04:20;;;;;;;56.17;33.45;;;;;;;;;;6125145;23;20064;-73
2023/12/20 09:06:46;;;;;;;53.05;31.02;;;;;;;;;;6099051;23;20457;-73
2023/12/20 09:09:15;;;;;;;59.47;27.63;;;;;;;;;;6124009;23;20006;-75
2023/12/20 09:11:41;;;;;;;56.97;28.45;;;;;;;;;;6124617;23;20511;-76
2023/12/20 09:14:07;;;;;;;47.40;28.40;;;;;;;;;;6124503;23;20061;-74
2023/12/20 09:16:35;;;;;;;52.80;28.98;;;;;;;;;;6098802;23;20401;-73
2023/12/20 09:19:00;;;;;;;49.85;27.42;;;;;;;;;;6123630;23;20009;-74
2023/12/20 09:21:26;;;;;;;79.32;35.20;;;;;;;;;;6125012;23;20009;-74
2023/12/20 09:23:51;;;;;;;58.17;33.38;;;;;;;;;;6123046;23;20452;-74
2023/12/20 09:26:17;;;;;;;61.05;32.25;;;;;;;;;;6098616;23;20013;-74
2023/12/20 09:28:43;;;;;;;46.15;30.25;;;;;;;;;;6123130;23;20012;-73
2023/12/20 09:31:11;;;;;;;51.20;31.67;;;;;;;;;;6125432;23;20014;-74
2023/12/20 09:33:37;;;;;;;63.65;30.83;;;;;;;;;;6128601;23;20081;-76
2023/12/20 09:36:03;;;;;;;48.42;28.13;;;;;;;;;;6121941;23;20445;-75
2023/12/20 09:38:28;;;;;;;43.28;22.98;;;;;;;;;;6098764;23;20109;-74
2023/12/20 09:40:55;;;;;;;52.35;23.58;;;;;;;;;;6124355;23;20038;-75
2023/12/20 09:43:25;;;;;;;45.08;24.63;;;;;;;;;;6124513;23;20325;-74
2023/12/20 09:45:53;;;;;;;46.20;25.17;;;;;;;;;;6122902;23;20024;-75
2023/12/20 09:48:20;;;;;;;46.45;27.80;;;;;;;;;;6124263;23;20009;-75
2023/12/20 09:50:46;;;;;;;43.35;23.15;;;;;;;;;;6122957;23;20006;-75
2023/12/20 09:53:16;;;;;;;37.97;24.08;;;;;;;;;;6123715;23;20349;-74
2023/12/20 09:55:42;;;;;;;47.47;26.15;;;;;;;;;;6124100;23;20010;-73
2023/12/20 09:58:08;;;;;;;50.10;25.52;;;;;;;;;;6125015;23;20396;-74
2023/12/20 10:00:37;;;;;;;57.25;24.13;;;;;;;;;;6124444;23;20020;-74
2023/12/20 10:03:04;;;;;;;60.00;30.05;;;;;;;;;;6098553;23;20045;-75
2023/12/20 10:05:31;;;;;;;85.00;39.10;;;;;;;;;;6124678;23;20025;-75
2023/12/20 10:07:58;;;;;;;35.95;22.00;;;;;;;;;;6123598;23;20088;-75
2023/12/20 10:10:23;;;;;;;74.65;36.35;;;;;;;;;;6124172;23;20455;-75
2023/12/20 10:13:07;;;;;;;42.08;23.15;;;;;;;;;;6124241;23;20010;-75
2023/12/20 10:15:33;;;;;;;51.17;25.02;;;;;;;;;;6124079;23;20037;-74
2023/12/20 10:18:04;;;;;;;50.50;29.30;;;;;;;;;;6125357;23;20018;-73
2023/12/20 10:20:30;;;;;;;47.88;26.02;;;;;;;;;;6131286;23;20025;-75
2023/12/20 10:22:59;;;;;;;41.88;24.05;;;;;;;;;;6123979;23;20053;-73
2023/12/20 10:25:25;;;;;;;36.33;22.67;;;;;;;;;;6124529;23;20018;-73
2023/12/20 10:28:17;;;;;;;47.35;25.75;;;;;;;;;;6124336;23;20031;-76
2023/12/20 10:30:43;;;;;;;47.80;27.85;;;;;;;;;;6098008;23;20022;-73
2023/12/20 10:33:09;;;;;;;46.95;26.88;;;;;;;;;;6127350;23;20344;-75
2023/12/20 10:35:36;;;;;;;49.08;25.83;;;;;;;;;;6136006;23;20065;-75
2023/12/20 10:38:05;;;;;;;47.10;27.15;;;;;;;;;;6128244;23;20046;-74
2023/12/20 10:40:34;;;;;;;43.28;25.17;;;;;;;;;;6124224;23;20010;-74
2023/12/20 10:43:01;;;;;;;44.83;25.67;;;;;;;;;;6125180;23;20026;-75
2023/12/20 10:45:26;;;;;;;46.33;27.02;;;;;;;;;;6124645;23;20429;-74
2023/12/20 10:47:53;;;;;;;38.85;23.23;;;;;;;;;;6132536;23;20021;-76
2023/12/20 10:50:20;;;;;;;42.03;24.23;;;;;;;;;;6113309;23;20373;-73
2023/12/20 10:52:47;;;;;;;44.55;25.90;;;;;;;;;;6123191;23;20021;-72
2023/12/20 10:55:13;;;;;;;39.35;23.83;;;;;;;;;;6101736;23;20180;-75
2023/12/20 10:57:39;;;;;;;43.20;23.25;;;;;;;;;;6125588;23;20417;-74
2023/12/20 11:00:10;;;;;;;30.27;18.30;;;;;;;;;;6098503;23;20009;-73
2023/12/20 11:02:40;;;;;;;27.23;17.38;;;;;;;;;;6098297;23;20010;-75
2023/12/20 11:05:12;;;;;;;33.10;19.92;;;;;;;;;;6123898;23;20096;-74
2023/12/20 11:07:50;;;;;;;37.33;19.25;;;;;;;;;;6098548;23;20033;-73
2023/12/20 11:10:15;;;;;;;35.97;19.95;;;;;;;;;;6122979;23;20021;-74
2023/12/20 11:12:53;;;;;;;36.03;20.90;;;;;;;;;;6123529;23;20002;-72
2023/12/20 11:15:20;;;;;;;59.75;30.60;;;;;;;;;;6123616;23;20013;-73
2023/12/20 11:17:55;;;;;;;34.65;20.63;;;;;;;;;;6124096;23;19998;-73
2023/12/20 11:20:23;;;;;;;37.70;19.73;;;;;;;;;;6097884;23;20021;-73
2023/12/20 11:22:56;;;;;;;44.60;23.08;;;;;;;;;;6125982;23;20009;-73
2023/12/20 11:25:21;;;;;;;58.13;26.98;;;;;;;;;;6125250;23;20010;-73
2023/12/20 11:28:08;;;;;;;62.75;28.92;;;;;;;;;;6125307;23;20297;-73
2023/12/20 11:30:55;;;;;;;47.95;24.75;;;;;;;;;;6099502;23;20021;-72
2023/12/20 11:33:25;;;;;;;42.67;23.27;;;;;;;;;;6125203;23;20049;-73
2023/12/20 11:35:55;;;;;;;36.03;19.85;;;;;;;;;;6125360;23;20088;-73
2023/12/20 11:38:21;;;;;;;48.35;25.48;;;;;;;;;;6099465;23;20432;-73
2023/12/20 11:40:49;;;;;;;87.57;40.63;;;;;;;;;;6124887;23;20021;-73
2023/12/20 11:43:38;;;;;;;53.08;26.42;;;;;;;;;;6123807;23;20006;-74
2023/12/20 11:46:09;;;;;;;33.53;19.23;;;;;;;;;;6125646;23;20010;-73
2023/12/20 11:48:36;;;;;;;31.88;17.33;;;;;;;;;;6125635;23;20022;-73
2023/12/20 11:51:03;;;;;;;35.70;19.27;;;;;;;;;;6123994;23;20464;-74
2023/12/20 11:53:33;;;;;;;25.05;12.68;;;;;;;;;;6125492;23;20002;-75
2023/12/20 11:55:59;;;;;;;25.42;13.50;;;;;;;;;;6123990;23;20014;-73
2023/12/20 11:58:25;;;;;;;35.05;20.08;;;;;;;;;;6124977;23;20057;-75
2023/12/20 12:00:51;;;;;;;26.13;16.25;;;;;;;;;;6125962;23;20010;-73
2023/12/20 12:03:18;;;;;;;22.98;14.63;;;;;;;;;;6099403;23;20520;-73
2023/12/20 12:05:48;;;;;;;27.25;15.32;;;;;;;;;;6125684;23;20090;-72
2023/12/20 12:08:14;;;;;;;20.55;12.35;;;;;;;;;;6125762;23;20029;-72
2023/12/20 12:10:41;;;;;;;19.98;11.85;;;;;;;;;;6125488;23;20570;-74
2023/12/20 12:13:07;;;;;;;22.65;12.02;;;;;;;;;;6125150;23;20289;-74
2023/12/20 12:15:34;;;;;;;21.42;14.05;;;;;;;;;;6125067;23;20094;-73
2023/12/20 12:17:59;;;;;;;23.45;15.48;;;;;;;;;;6099415;23;20085;-73
2023/12/20 12:20:25;;;;;;;23.10;13.05;;;;;;;;;;6125639;23;20029;-73
2023/12/20 12:23:06;;;;;;;23.15;13.48;;;;;;;;;;6125149;23;20045;-74
2023/12/20 12:25:35;;;;;;;19.83;10.13;;;;;;;;;;6125427;23;20010;-72
2023/12/20 12:28:02;;;;;;;18.45;10.90;;;;;;;;;;6143573;23;20018;-74
2023/12/20 12:30:29;;;;;;;24.30;11.90;;;;;;;;;;6124279;23;20052;-74
2023/12/20 12:32:56;;;;;;;16.15;9.35;;;;;;;;;;6123265;23;20014;-71
2023/12/20 12:35:22;;;;;;;19.20;11.30;;;;;;;;;;6124726;23;20025;-74
2023/12/20 12:37:49;;;;;;;20.77;12.25;;;;;;;;;;6125692;23;20005;-74
2023/12/20 12:40:16;;;;;;;27.52;12.98;;;;;;;;;;6125449;23;20006;-74
2023/12/20 12:42:43;;;;;;;18.00;10.70;;;;;;;;;;6124923;23;20465;-74
2023/12/20 12:45:15;;;;;;;14.82;9.63;;;;;;;;;;6125699;23;20453;-77
2023/12/20 12:47:41;;;;;;;18.88;9.68;;;;;;;;;;6148826;23;20061;-73
2023/12/20 12:50:07;;;;;;;19.80;9.77;;;;;;;;;;6124873;23;20326;-73
2023/12/20 12:52:33;;;;;;;19.10;11.18;;;;;;;;;;6124540;23;20002;-74
2023/12/20 12:54:58;;;;;;;25.00;14.10;;;;;;;;;;6124929;23;20038;-73
2023/12/20 12:57:26;;;;;;;28.23;15.55;;;;;;;;;;6125026;23;20066;-74
2023/12/20 12:59:53;;;;;;;25.20;13.15;;;;;;;;;;6126154;23;20005;-72
2023/12/20 13:02:18;;;;;;;22.13;12.95;;;;;;;;;;6121682;23;20017;-72
2023/12/20 13:04:44;;;;;;;24.58;13.35;;;;;;;;;;6122416;23;20018;-73
2023/12/20 13:07:11;;;;;;;27.33;14.63;;;;;;;;;;6124137;23;20534;-72
2023/12/20 13:09:37;;;;;;;22.55;14.38;;;;;;;;;;6124400;23;20017;-73
2023/12/20 13:12:04;;;;;;;35.28;17.45;;;;;;;;;;6124014;23;20013;-73
2023/12/20 13:14:33;;;;;;;23.00;12.23;;;;;;;;;;6124893;23;20002;-73
2023/12/20 13:17:00;;;;;;;18.77;10.18;;;;;;;;;;6124836;23;20064;-74
2023/12/20 13:19:26;;;;;;;25.95;14.05;;;;;;;;;;6123036;23;20096;-73
2023/12/20 13:21:53;;;;;;;16.77;10.23;;;;;;;;;;6123593;23;20044;-74
2023/12/20 13:24:18;;;;;;;15.57;9.65;;;;;;;;;;6124005;23;20081;-73
2023/12/20 13:26:44;;;;;;;17.45;9.55;;;;;;;;;;6127242;23;20116;-74
2023/12/20 13:29:10;;;;;;;21.50;11.32;;;;;;;;;;6123833;23;20010;-74
2023/12/20 13:31:36;;;;;;;22.98;13.18;;;;;;;;;;6124503;23;20010;-71
2023/12/20 13:34:02;;;;;;;18.95;11.77;;;;;;;;;;6122415;23;20045;-72
2023/12/20 13:36:28;;;;;;;18.67;11.13;;;;;;;;;;6122445;23;20014;-73
2023/12/20 13:38:54;;;;;;;18.33;11.70;;;;;;;;;;6123322;23;20044;-74
2023/12/20 13:41:20;;;;;;;20.75;11.27;;;;;;;;;;6123011;23;20018;-74
2023/12/20 13:43:45;;;;;;;17.23;10.65;;;;;;;;;;6121883;23;20013;-74
2023/12/20 13:46:11;;;;;;;19.58;10.93;;;;;;;;;;6123066;23;20006;-72
2023/12/20 13:48:37;;;;;;;15.95;9.68;;;;;;;;;;6123808;23;20321;-75
2023/12/20 13:51:03;;;;;;;22.88;11.45;;;;;;;;;;6128523;23;20014;-74
2023/12/20 13:53:29;;;;;;;23.70;12.18;;;;;;;;;;6123491;23;20314;-73
2023/12/20 13:55:55;;;;;;;28.52;12.63;;;;;;;;;;6125520;23;20436;-73
2023/12/20 13:58:20;;;;;;;23.83;12.00;;;;;;;;;;6123887;23;20013;-74
2023/12/20 14:00:46;;;;;;;22.00;10.90;;;;;;;;;;6119930;23;20006;-74
2023/12/20 14:03:12;;;;;;;20.45;12.60;;;;;;;;;;6096985;23;20014;-74
2023/12/20 14:05:38;;;;;;;27.73;12.63;;;;;;;;;;6123523;23;20088;-74
2023/12/20 14:08:04;;;;;;;26.10;11.75;;;;;;;;;;6098063;23;20318;-73
2023/12/20 14:10:30;;;;;;;19.45;11.25;;;;;;;;;;6123870;23;20044;-73
2023/12/20 14:12:56;;;;;;;22.30;11.45;;;;;;;;;;6120706;23;20088;-73